sensor_id;sensor_type;location;lat;lon;timestamp;P1;durP1;ratioP1;P2;durP2;ratioP2
15915;SDS011;8057;47.830;-3.870;2023-05-15T00:03:09;5.93;;;5.43;;
15915;SDS011;8057;47.830;-3.870;2023-05-15T00:07:21;5.93;;;5.50;;
15915;SDS011;8057;47.830;-3.870;2023-05-15T00:11:33;6.03;;;5.50;;
15915;SDS011;8057;47.830;-3.870;2023-05-15T00:15:43;6.17;;;5.40;;
15915;SDS011;8057;47.830;-3.870;2023-05-15T00:19:53;5.60;;;5.10;;
15915;SDS011;8057;47.830;-3.870;2023-05-15T00:24:06;5.93;;;5.53;;
15915;SDS011;8057;47.830;-3.870;2023-05-15T00:28:16;5.07;;;4.67;;
15915;SDS011;8057;47.830;-3.870;2023-05-15T00:32:26;5.27;;;4.87;;
15915;SDS011;8057;47.830;-3.870;2023-05-15T00:36:35;5.17;;;4.77;;
15915;SDS011;8057;47.830;-3.870;2023-05-15T00:40:46;5.63;;;5.23;;
15915;SDS011;8057;47.830;-3.870;2023-05-15T00:44:57;4.97;;;4.47;;
15915;SDS011;8057;47.830;-3.870;2023-05-15T00:49:08;5.10;;;4.60;;
15915;SDS011;8057;47.830;-3.870;2023-05-15T00:53:19;4.30;;;4.00;;
15915;SDS011;8057;47.830;-3.870;2023-05-15T00:57:32;5.03;;;4.63;;
15915;SDS011;8057;47.830;-3.870;2023-05-15T01:01:41;3.97;;;3.77;;
15915;SDS011;8057;47.830;-3.870;2023-05-15T01:05:51;4.17;;;3.87;;
15915;SDS011;8057;47.830;-3.870;2023-05-15T01:10:01;5.27;;;4.03;;
15915;SDS011;8057;47.830;-3.870;2023-05-15T01:14:13;4.80;;;4.40;;
15915;SDS011;8057;47.830;-3.870;2023-05-15T01:18:23;4.37;;;4.00;;
15915;SDS011;8057;47.830;-3.870;2023-05-15T01:27:23;4.27;;;3.87;;
15915;SDS011;8057;47.830;-3.870;2023-05-15T01:31:37;4.20;;;3.70;;
15915;SDS011;8057;47.830;-3.870;2023-05-15T01:35:50;4.23;;;3.93;;
15915;SDS011;8057;47.830;-3.870;2023-05-15T01:40:06;4.17;;;3.87;;
15915;SDS011;8057;47.830;-3.870;2023-05-15T01:44:21;4.40;;;4.10;;
15915;SDS011;8057;47.830;-3.870;2023-05-15T01:48:36;4.43;;;3.70;;
15915;SDS011;8057;47.830;-3.870;2023-05-15T01:52:49;4.70;;;4.30;;
15915;SDS011;8057;47.830;-3.870;2023-05-15T01:57:02;6.30;;;3.47;;
15915;SDS011;8057;47.830;-3.870;2023-05-15T02:01:15;5.13;;;3.67;;
15915;SDS011;8057;47.830;-3.870;2023-05-15T02:05:33;5.57;;;4.13;;
15915;SDS011;8057;47.830;-3.870;2023-05-15T02:09:47;4.23;;;3.83;;
15915;SDS011;8057;47.830;-3.870;2023-05-15T02:14:01;4.27;;;3.70;;
15915;SDS011;8057;47.830;-3.870;2023-05-15T02:18:20;4.00;;;3.33;;
15915;SDS011;8057;47.830;-3.870;2023-05-15T02:22:56;2.93;;;2.50;;
15915;SDS011;8057;47.830;-3.870;2023-05-15T02:27:11;3.30;;;2.90;;
15915;SDS011;8057;47.830;-3.870;2023-05-15T02:31:57;2.70;;;2.47;;
15915;SDS011;8057;47.830;-3.870;2023-05-15T02:36:19;3.00;;;2.80;;
15915;SDS011;8057;47.830;-3.870;2023-05-15T02:41:03;4.50;;;2.87;;
15915;SDS011;8057;47.830;-3.870;2023-05-15T02:45:19;3.83;;;2.47;;
15915;SDS011;8057;47.830;-3.870;2023-05-15T02:49:33;3.57;;;2.63;;
15915;SDS011;8057;47.830;-3.870;2023-05-15T02:53:46;2.13;;;1.93;;
15915;SDS011;8057;47.830;-3.870;2023-05-15T02:58:24;2.20;;;1.93;;
15915;SDS011;8057;47.830;-3.870;2023-05-15T03:02:35;2.00;;;1.90;;
15915;SDS011;8057;47.830;-3.870;2023-05-15T03:06:46;1.87;;;1.67;;
15915;SDS011;8057;47.830;-3.870;2023-05-15T03:11:00;2.17;;;1.30;;
15915;SDS011;8057;47.830;-3.870;2023-05-15T03:15:11;0.90;;;0.90;;
15915;SDS011;8057;47.830;-3.870;2023-05-15T03:19:36;0.80;;;0.80;;
15915;SDS011;8057;47.830;-3.870;2023-05-15T03:23:48;1.80;;;0.83;;
15915;SDS011;8057;47.830;-3.870;2023-05-15T03:28:01;1.80;;;0.97;;
15915;SDS011;8057;47.830;-3.870;2023-05-15T03:32:12;0.83;;;0.80;;
15915;SDS011;8057;47.830;-3.870;2023-05-15T03:36:22;1.43;;;0.90;;
15915;SDS011;8057;47.830;-3.870;2023-05-15T03:40:32;1.10;;;1.00;;
15915;SDS011;8057;47.830;-3.870;2023-05-15T03:44:46;1.03;;;0.87;;
15915;SDS011;8057;47.830;-3.870;2023-05-15T03:48:56;1.03;;;1.00;;
15915;SDS011;8057;47.830;-3.870;2023-05-15T03:53:06;2.40;;;1.37;;
15915;SDS011;8057;47.830;-3.870;2023-05-15T03:57:17;2.07;;;1.50;;
15915;SDS011;8057;47.830;-3.870;2023-05-15T04:01:46;1.70;;;1.60;;
15915;SDS011;8057;47.830;-3.870;2023-05-15T04:06:11;3.13;;;1.80;;
15915;SDS011;8057;47.830;-3.870;2023-05-15T04:10:22;2.23;;;2.00;;
15915;SDS011;8057;47.830;-3.870;2023-05-15T04:14:33;1.90;;;1.80;;
15915;SDS011;8057;47.830;-3.870;2023-05-15T04:18:51;2.43;;;2.10;;
15915;SDS011;8057;47.830;-3.870;2023-05-15T04:23:06;3.43;;;2.40;;
15915;SDS011;8057;47.830;-3.870;2023-05-15T04:27:17;3.77;;;2.53;;
15915;SDS011;8057;47.830;-3.870;2023-05-15T04:31:31;3.17;;;2.80;;
15915;SDS011;8057;47.830;-3.870;2023-05-15T04:35:45;5.40;;;3.63;;
15915;SDS011;8057;47.830;-3.870;2023-05-15T04:39:58;4.40;;;3.37;;
15915;SDS011;8057;47.830;-3.870;2023-05-15T04:44:08;5.40;;;3.73;;
15915;SDS011;8057;47.830;-3.870;2023-05-15T04:48:21;5.53;;;4.13;;
15915;SDS011;8057;47.830;-3.870;2023-05-15T04:52:35;6.53;;;4.53;;
15915;SDS011;8057;47.830;-3.870;2023-05-15T04:56:49;6.87;;;4.00;;
15915;SDS011;8057;47.830;-3.870;2023-05-15T05:01:09;5.97;;;4.17;;
15915;SDS011;8057;47.830;-3.870;2023-05-15T05:05:20;7.47;;;4.03;;
15915;SDS011;8057;47.830;-3.870;2023-05-15T05:09:33;7.20;;;4.33;;
15915;SDS011;8057;47.830;-3.870;2023-05-15T05:13:46;8.83;;;4.60;;
15915;SDS011;8057;47.830;-3.870;2023-05-15T05:17:57;7.33;;;5.03;;
15915;SDS011;8057;47.830;-3.870;2023-05-15T05:22:09;9.23;;;5.10;;
15915;SDS011;8057;47.830;-3.870;2023-05-15T05:26:21;10.97;;;4.80;;
15915;SDS011;8057;47.830;-3.870;2023-05-15T05:30:32;10.47;;;5.17;;
15915;SDS011;8057;47.830;-3.870;2023-05-15T05:34:43;10.57;;;5.20;;
15915;SDS011;8057;47.830;-3.870;2023-05-15T05:38:56;7.83;;;4.53;;
15915;SDS011;8057;47.830;-3.870;2023-05-15T05:43:07;11.03;;;4.90;;
15915;SDS011;8057;47.830;-3.870;2023-05-15T05:47:17;10.30;;;4.27;;
15915;SDS011;8057;47.830;-3.870;2023-05-15T05:51:26;7.93;;;4.47;;
15915;SDS011;8057;47.830;-3.870;2023-05-15T05:55:37;8.03;;;4.63;;
15915;SDS011;8057;47.830;-3.870;2023-05-15T05:59:49;8.23;;;4.47;;
15915;SDS011;8057;47.830;-3.870;2023-05-15T06:03:59;10.67;;;4.80;;
15915;SDS011;8057;47.830;-3.870;2023-05-15T06:08:11;10.23;;;4.80;;
15915;SDS011;8057;47.830;-3.870;2023-05-15T06:12:22;9.17;;;4.50;;
15915;SDS011;8057;47.830;-3.870;2023-05-15T06:16:42;9.40;;;4.47;;
15915;SDS011;8057;47.830;-3.870;2023-05-15T06:20:51;10.17;;;4.83;;
15915;SDS011;8057;47.830;-3.870;2023-05-15T06:25:01;6.93;;;4.20;;
15915;SDS011;8057;47.830;-3.870;2023-05-15T06:29:11;8.97;;;4.53;;
15915;SDS011;8057;47.830;-3.870;2023-05-15T06:33:22;9.80;;;4.60;;
15915;SDS011;8057;47.830;-3.870;2023-05-15T06:37:32;5.70;;;3.93;;
15915;SDS011;8057;47.830;-3.870;2023-05-15T06:41:42;6.40;;;3.67;;
15915;SDS011;8057;47.830;-3.870;2023-05-15T06:45:56;6.50;;;3.70;;
15915;SDS011;8057;47.830;-3.870;2023-05-15T06:50:15;6.17;;;3.80;;
15915;SDS011;8057;47.830;-3.870;2023-05-15T06:54:24;7.07;;;3.87;;
15915;SDS011;8057;47.830;-3.870;2023-05-15T06:59:04;5.43;;;4.17;;
15915;SDS011;8057;47.830;-3.870;2023-05-15T07:03:18;7.20;;;3.87;;
15915;SDS011;8057;47.830;-3.870;2023-05-15T07:12:22;6.33;;;3.50;;
15915;SDS011;8057;47.830;-3.870;2023-05-15T07:16:38;5.20;;;3.40;;
15915;SDS011;8057;47.830;-3.870;2023-05-15T07:20:49;5.13;;;3.60;;
15915;SDS011;8057;47.830;-3.870;2023-05-15T07:24:58;3.87;;;3.47;;
15915;SDS011;8057;47.830;-3.870;2023-05-15T07:29:11;6.63;;;3.40;;
15915;SDS011;8057;47.830;-3.870;2023-05-15T07:41:57;5.00;;;3.10;;
15915;SDS011;8057;47.830;-3.870;2023-05-15T07:46:08;4.57;;;2.90;;
15915;SDS011;8057;47.830;-3.870;2023-05-15T07:50:19;4.77;;;3.10;;
15915;SDS011;8057;47.830;-3.870;2023-05-15T07:54:30;4.27;;;2.77;;
15915;SDS011;8057;47.830;-3.870;2023-05-15T07:58:40;5.87;;;3.23;;
15915;SDS011;8057;47.830;-3.870;2023-05-15T08:02:50;3.10;;;2.80;;
15915;SDS011;8057;47.830;-3.870;2023-05-15T08:07:00;2.73;;;2.50;;
15915;SDS011;8057;47.830;-3.870;2023-05-15T08:11:10;3.70;;;2.50;;
15915;SDS011;8057;47.830;-3.870;2023-05-15T08:15:19;2.20;;;2.00;;
15915;SDS011;8057;47.830;-3.870;2023-05-15T08:19:31;3.03;;;2.20;;
15915;SDS011;8057;47.830;-3.870;2023-05-15T08:23:40;23.23;;;4.27;;
15915;SDS011;8057;47.830;-3.870;2023-05-15T08:27:49;4.87;;;2.20;;
15915;SDS011;8057;47.830;-3.870;2023-05-15T08:31:59;3.33;;;1.80;;
15915;SDS011;8057;47.830;-3.870;2023-05-15T08:36:10;1.77;;;1.60;;
15915;SDS011;8057;47.830;-3.870;2023-05-15T08:40:20;2.23;;;1.20;;
15915;SDS011;8057;47.830;-3.870;2023-05-15T08:44:45;1.80;;;1.13;;
15915;SDS011;8057;47.830;-3.870;2023-05-15T08:48:55;2.07;;;1.50;;
15915;SDS011;8057;47.830;-3.870;2023-05-15T08:53:07;1.27;;;1.13;;
15915;SDS011;8057;47.830;-3.870;2023-05-15T08:57:25;1.90;;;1.10;;
15915;SDS011;8057;47.830;-3.870;2023-05-15T09:01:35;4.77;;;1.10;;
15915;SDS011;8057;47.830;-3.870;2023-05-15T09:05:45;6.60;;;1.17;;
15915;SDS011;8057;47.830;-3.870;2023-05-15T09:10:01;1.20;;;0.80;;
15915;SDS011;8057;47.830;-3.870;2023-05-15T09:14:11;1.00;;;0.90;;
15915;SDS011;8057;47.830;-3.870;2023-05-15T09:18:21;1.17;;;0.60;;
15915;SDS011;8057;47.830;-3.870;2023-05-15T09:22:32;0.83;;;0.77;;
15915;SDS011;8057;47.830;-3.870;2023-05-15T09:31:41;3.60;;;1.10;;
15915;SDS011;8057;47.830;-3.870;2023-05-15T09:35:50;1.60;;;1.30;;
15915;SDS011;8057;47.830;-3.870;2023-05-15T09:40:06;2.20;;;1.10;;
15915;SDS011;8057;47.830;-3.870;2023-05-15T09:44:17;1.30;;;1.20;;
15915;SDS011;8057;47.830;-3.870;2023-05-15T09:48:29;2.07;;;1.57;;
15915;SDS011;8057;47.830;-3.870;2023-05-15T09:52:39;2.47;;;1.40;;
15915;SDS011;8057;47.830;-3.870;2023-05-15T09:56:51;2.20;;;1.27;;
15915;SDS011;8057;47.830;-3.870;2023-05-15T11:26:54;5.30;;;3.20;;
15915;SDS011;8057;47.830;-3.870;2023-05-15T11:31:38;6.30;;;3.50;;
15915;SDS011;8057;47.830;-3.870;2023-05-15T11:35:56;5.90;;;2.80;;
15915;SDS011;8057;47.830;-3.870;2023-05-15T11:45:12;4.53;;;2.80;;
15915;SDS011;8057;47.830;-3.870;2023-05-15T12:09:41;4.63;;;2.20;;
15915;SDS011;8057;47.830;-3.870;2023-05-15T12:18:19;4.63;;;2.00;;
15915;SDS011;8057;47.830;-3.870;2023-05-15T12:22:55;3.57;;;2.27;;
15915;SDS011;8057;47.830;-3.870;2023-05-15T12:27:42;2.73;;;2.00;;
15915;SDS011;8057;47.830;-3.870;2023-05-15T13:29:04;5.97;;;1.80;;
15915;SDS011;8057;47.830;-3.870;2023-05-15T13:53:09;3.33;;;1.43;;
15915;SDS011;8057;47.830;-3.870;2023-05-15T13:57:49;3.87;;;1.13;;
15915;SDS011;8057;47.830;-3.870;2023-05-15T14:02:06;3.43;;;1.73;;
15915;SDS011;8057;47.830;-3.870;2023-05-15T14:06:15;3.40;;;1.30;;
15915;SDS011;8057;47.830;-3.870;2023-05-15T14:10:26;4.00;;;1.47;;
15915;SDS011;8057;47.830;-3.870;2023-05-15T14:14:45;5.03;;;1.80;;
15915;SDS011;8057;47.830;-3.870;2023-05-15T14:41:13;4.73;;;1.67;;
15915;SDS011;8057;47.830;-3.870;2023-05-15T14:49:42;4.70;;;1.50;;
15915;SDS011;8057;47.830;-3.870;2023-05-15T14:54:07;4.83;;;1.27;;
15915;SDS011;8057;47.830;-3.870;2023-05-15T15:08:20;2.43;;;1.20;;
15915;SDS011;8057;47.830;-3.870;2023-05-15T19:29:36;5.00;;;1.87;;
15915;SDS011;8057;47.830;-3.870;2023-05-15T19:34:12;3.03;;;1.70;;
15915;SDS011;8057;47.830;-3.870;2023-05-15T19:39:08;2.87;;;1.47;;
15915;SDS011;8057;47.830;-3.870;2023-05-15T19:43:28;4.20;;;2.13;;
